createdAt,value
2023-01-05T00:00:56.752Z,99963.09
2023-01-05T00:03:24.171Z,99964.13
2023-01-05T00:05:51.574Z,99976.41
2023-01-05T00:08:18.938Z,99982.66
2023-01-05T00:11:03.764Z,99974.72
2023-01-05T00:13:48.635Z,99982.72
2023-01-05T00:16:35.720Z,99987.16
2023-01-05T00:19:20.546Z,99967.59
2023-01-05T00:22:05.276Z,99984.59
2023-01-05T00:24:32.660Z,99986.31
2023-01-05T00:27:00.052Z,99980.25
2023-01-05T00:29:27.485Z,99985.47
2023-01-05T00:31:56.213Z,99984.69
2023-01-05T00:34:23.639Z,99985.63
2023-01-05T00:36:51.033Z,99980.41
2023-01-05T00:39:18.393Z,99996.22
2023-01-05T00:41:45.775Z,99979.72
2023-01-05T00:44:13.147Z,100001.59
2023-01-05T00:46:40.562Z,99994.59
2023-01-05T00:49:09.411Z,100004.22
2023-01-05T00:51:36.805Z,99995.44
2023-01-05T00:54:04.264Z,100006.19
2023-01-05T00:56:31.666Z,100001.75
2023-01-05T00:58:59.052Z,100000.88
2023-01-05T01:01:26.514Z,100014.03
2023-01-05T01:03:53.991Z,100010.63
2023-01-05T01:06:22.714Z,100020.28
2023-01-05T01:08:50.447Z,100030.06
2023-01-05T01:11:17.923Z,100032.72
2023-01-05T01:13:45.399Z,100031.03
2023-01-05T01:16:13.694Z,100033.66
2023-01-05T01:18:41.437Z,99987.44
2023-01-05T01:21:09.049Z,100040.81
2023-01-05T01:23:38.069Z,100034.69
2023-01-05T01:26:05.840Z,100045.28
2023-01-05T01:28:33.240Z,100040.16
2023-01-05T01:31:00.660Z,100065.56
2023-01-05T01:33:28.185Z,100039.38
2023-01-05T01:35:55.589Z,100047.06
2023-01-05T01:38:23.006Z,100055.06
2023-01-05T01:40:51.700Z,100066.53
2023-01-05T01:43:21.131Z,100064.78
2023-01-05T01:45:48.563Z,100063.97
2023-01-05T01:48:17.273Z,100074.63
2023-01-05T01:50:45.370Z,100067.50
2023-01-05T01:53:15.053Z,100042.97
2023-01-05T01:55:42.425Z,100067.69
2023-01-05T01:58:13.532Z,100077.44
2023-01-05T02:00:41.221Z,100074.88
2023-01-05T02:03:08.614Z,100064.44
2023-01-05T02:05:37.068Z,100077.50
2023-01-05T02:08:05.001Z,100085.44
2023-01-05T02:10:41.735Z,100054.97
2023-01-05T02:13:19.289Z,100085.59
2023-01-05T02:15:49.603Z,100044.69
2023-01-05T02:18:33.846Z,100081.22
2023-01-05T02:21:18.133Z,100087.47
2023-01-05T02:23:54.546Z,100073.16
2023-01-05T02:26:43.535Z,100089.31
2023-01-05T02:29:23.280Z,100082.31
2023-01-05T02:31:54.162Z,100014.84
2023-01-05T02:34:22.658Z,100076.16
2023-01-05T02:36:53.832Z,100072.84
2023-01-05T02:39:23.499Z,100080.63
2023-01-05T02:41:53.647Z,100077.13
2023-01-05T02:44:20.844Z,100064.91
2023-01-05T02:46:48.500Z,100079.06
2023-01-05T02:49:17.203Z,100066.63
2023-01-05T02:51:47.956Z,99995.88
2023-01-05T02:54:16.960Z,100064.13
2023-01-05T02:56:46.137Z,100060.63
2023-01-05T02:59:15.528Z,100065.06
2023-01-05T03:01:44.086Z,100042.03
2023-01-05T03:04:13.388Z,100052.41
2023-01-05T03:06:46.870Z,100079.06
2023-01-05T03:09:14.684Z,100072.06
2023-01-05T03:12:02.619Z,100080.94
2023-01-05T03:14:32.370Z,100086.22
2023-01-05T03:16:59.753Z,100081.03
2023-01-05T03:19:40.279Z,100005.13
2023-01-05T03:22:32.751Z,100088.09
2023-01-05T03:25:17.536Z,100092.50
2023-01-05T03:28:02.391Z,100093.47
2023-01-05T03:30:53.362Z,100094.31
2023-01-05T03:33:43.813Z,100107.69
2023-01-05T03:36:11.183Z,100102.41
2023-01-05T03:38:42.348Z,100109.41
2023-01-05T03:41:10.205Z,100104.13
2023-01-05T03:43:37.735Z,100106.75
2023-01-05T03:46:10.634Z,100111.25
2023-01-05T03:48:38.063Z,100116.53
2023-01-05T03:51:06.053Z,100112.03
2023-01-05T03:53:33.420Z,100104.97
2023-01-05T03:56:02.094Z,100107.69
2023-01-05T03:58:29.479Z,100118.34
2023-01-05T04:00:56.880Z,100113.06
2023-01-05T04:03:31.073Z,100114.84
2023-01-05T04:05:59.207Z,100113.97
2023-01-05T04:08:26.595Z,100119.28
2023-01-05T04:10:54.391Z,100042.66
2023-01-05T04:13:23.099Z,100143.16
2023-01-05T04:15:50.507Z,100136.06
2023-01-05T04:18:17.930Z,100128.16
2023-01-05T04:20:45.305Z,100123.72
2023-01-05T04:23:12.704Z,100129.91
2023-01-05T04:25:40.085Z,100125.56
2023-01-05T04:28:07.469Z,100138.84
2023-01-05T04:30:36.171Z,100144.13
2023-01-05T04:33:03.548Z,100140.63
2023-01-05T04:35:30.918Z,100137.97
2023-01-05T04:37:58.279Z,100145.06
2023-01-05T04:40:25.653Z,100149.50
2023-01-05T04:42:53.035Z,100154.78
2023-01-05T04:45:20.399Z,100163.53
2023-01-05T04:47:49.094Z,100156.50
2023-01-05T04:50:16.588Z,100155.72
2023-01-05T04:52:43.987Z,100146.06
2023-01-05T04:55:11.381Z,100095.94
2023-01-05T04:57:38.819Z,100160.16
2023-01-05T05:00:07.288Z,100160.06
2023-01-05T05:02:34.951Z,100169.84
2023-01-05T05:05:03.690Z,100158.69
2023-01-05T05:07:31.110Z,100159.34
2023-01-05T05:09:58.502Z,100169.84
2023-01-05T05:12:25.913Z,100180.44
2023-01-05T05:14:53.303Z,100179.44
2023-01-05T05:17:20.719Z,100179.53
2023-01-05T05:19:48.128Z,100175.22
2023-01-05T05:22:16.842Z,100171.47
2023-01-05T05:24:44.237Z,100183.88
2023-01-05T05:27:11.617Z,100177.59
2023-01-05T05:29:38.999Z,100190.75
2023-01-05T05:32:06.444Z,100177.44
2023-01-05T05:34:33.821Z,100178.22
2023-01-05T05:37:01.293Z,100177.22
2023-01-05T05:39:30.002Z,100186.09
2023-01-05T05:41:57.366Z,100185.00
2023-01-05T05:44:24.744Z,100195.44
2023-01-05T05:46:52.134Z,100184.78
2023-01-05T05:49:19.511Z,100182.84
2023-01-05T05:51:46.883Z,100194.22
2023-01-05T05:54:14.262Z,100194.97
2023-01-05T05:56:42.940Z,100195.84
2023-01-05T05:59:10.333Z,100206.34
2023-01-05T06:01:37.816Z,100205.41
2023-01-05T06:04:05.526Z,100198.25
2023-01-05T06:06:32.900Z,100206.09
2023-01-05T06:09:00.265Z,100198.31
2023-01-05T06:11:27.631Z,100212.13
2023-01-05T06:13:56.464Z,100216.38
2023-01-05T06:16:23.900Z,100219.81
2023-01-05T06:18:51.321Z,100216.31
2023-01-05T06:21:19.607Z,100212.72
2023-01-05T06:23:47.012Z,100220.41
2023-01-05T06:26:14.390Z,100227.44
2023-01-05T06:28:41.760Z,100239.66
2023-01-05T06:31:10.469Z,100231.66
2023-01-05T06:33:37.930Z,100243.84
2023-01-05T06:36:05.551Z,100247.38
2023-01-05T06:38:32.927Z,100244.50
2023-01-05T06:41:00.311Z,100249.63
2023-01-05T06:43:27.699Z,100251.09
2023-01-05T06:45:55.102Z,100261.28
2023-01-05T06:48:23.865Z,100261.78
2023-01-05T06:50:51.238Z,100261.28
2023-01-05T06:53:18.628Z,100256.47
2023-01-05T06:55:46.008Z,100266.44
2023-01-05T06:58:13.462Z,100190.06
2023-01-05T07:00:40.916Z,100275.28
2023-01-05T07:03:08.400Z,100279.31
2023-01-05T07:05:37.090Z,100275.59
2023-01-05T07:08:04.743Z,100287.66
2023-01-05T07:10:32.143Z,100282.09
2023-01-05T07:12:59.532Z,100281.31
2023-01-05T07:15:26.908Z,100291.59
2023-01-05T07:17:54.310Z,100292.38
2023-01-05T07:20:21.708Z,100288.03
2023-01-05T07:22:50.391Z,100300.16
2023-01-05T07:25:18.240Z,100303.84
2023-01-05T07:27:45.611Z,100306.59
2023-01-05T07:30:13.877Z,100306.75
2023-01-05T07:32:41.241Z,100316.66
2023-01-05T07:35:09.413Z,100316.72
2023-01-05T07:37:36.775Z,100326.47
2023-01-05T07:40:06.828Z,100323.81
2023-01-05T07:42:34.686Z,100326.53
2023-01-05T07:45:02.391Z,100329.19
2023-01-05T07:47:29.775Z,100327.03
2023-01-05T07:49:57.161Z,100323.97
2023-01-05T07:52:24.534Z,100339.28
2023-01-05T07:54:51.935Z,100321.41
2023-01-05T07:57:20.620Z,100345.22
2023-01-05T07:59:48.017Z,100342.25
2023-01-05T08:04:35.748Z,100352.38
2023-01-05T08:07:03.198Z,100346.03
2023-01-05T08:09:48.305Z,100354.44
2023-01-05T08:12:15.680Z,100358.63
2023-01-05T08:14:43.455Z,100355.56
2023-01-05T08:17:10.839Z,100355.41
2023-01-05T08:19:38.216Z,100366.72
2023-01-05T08:22:05.592Z,100369.28
2023-01-05T08:24:32.998Z,100351.81
2023-01-05T08:27:00.425Z,100360.03
2023-01-05T08:29:27.860Z,100372.53
2023-01-05T08:31:56.606Z,100375.28
2023-01-05T08:34:25.804Z,100369.19
2023-01-05T08:36:55.034Z,100367.25
2023-01-05T08:39:22.439Z,100369.81
2023-01-05T08:41:49.814Z,100389.03
2023-01-05T08:44:17.205Z,100388.13
2023-01-05T08:46:44.601Z,100396.00
2023-01-05T08:49:13.316Z,100390.53
2023-01-05T08:51:40.720Z,100379.84
2023-01-05T08:54:08.120Z,100392.84
2023-01-05T08:56:39.089Z,100367.56
2023-01-05T08:59:06.974Z,100414.16
2023-01-05T09:01:34.461Z,100406.09
2023-01-05T09:04:01.937Z,100418.47
2023-01-05T09:06:30.633Z,100413.25
2023-01-05T09:08:58.011Z,100422.16
2023-01-05T09:11:26.168Z,100424.03
2023-01-05T09:13:54.270Z,100438.25
2023-01-05T09:19:10.199Z,100449.81
2023-01-05T09:21:39.351Z,100442.00
2023-01-05T09:24:07.355Z,100456.97
2023-01-05T09:26:34.860Z,100433.91
2023-01-05T09:29:02.301Z,100458.69
2023-01-05T09:31:29.786Z,100471.03
2023-01-05T09:33:57.478Z,100465.72
2023-01-05T09:36:25.507Z,100473.69
2023-01-05T09:38:55.616Z,100471.13
2023-01-05T09:41:23.535Z,100483.34
2023-01-05T09:43:52.038Z,100488.50
2023-01-05T09:46:21.966Z,100482.16
2023-01-05T09:48:51.347Z,100489.97
2023-01-05T09:51:18.747Z,100497.84
2023-01-05T09:53:46.321Z,100497.09
2023-01-05T09:56:42.302Z,100501.28
2023-01-05T09:59:12.856Z,100497.00
2023-01-05T10:01:40.298Z,100508.28
2023-01-05T10:04:11.075Z,100515.34
2023-01-05T10:06:41.081Z,100522.50
2023-01-05T10:09:09.438Z,100517.03
2023-01-05T10:11:58.024Z,100533.66
2023-01-05T10:14:27.241Z,100524.13
2023-01-05T10:17:22.408Z,100535.13
2023-01-05T10:19:42.105Z,100536.75
2023-01-05T10:22:17.023Z,100536.75
2023-01-05T10:24:47.141Z,100503.47
2023-01-05T10:27:25.404Z,100538.72
2023-01-05T10:29:55.753Z,100530.06
2023-01-05T10:32:25.834Z,100500.88
2023-01-05T10:34:55.951Z,100532.88
2023-01-05T10:37:31.547Z,100539.97
2023-01-05T10:40:03.765Z,100537.22
2023-01-05T10:42:40.686Z,100547.78
2023-01-05T10:45:10.290Z,100528.44
2023-01-05T10:47:38.285Z,100521.59
2023-01-05T10:50:29.578Z,100545.28
2023-01-05T10:52:57.265Z,100547.34
2023-01-05T10:55:24.664Z,100559.72
2023-01-05T10:57:52.035Z,100554.34
2023-01-05T11:00:20.504Z,100527.97
2023-01-05T11:02:50.045Z,100558.78
2023-01-05T11:05:26.825Z,100566.66
2023-01-05T11:07:56.299Z,100566.66
2023-01-05T11:10:25.364Z,100577.28
2023-01-05T11:12:54.123Z,100564.16
2023-01-05T11:15:21.688Z,100578.16
2023-01-05T11:17:49.112Z,100575.41
2023-01-05T11:20:17.112Z,100576.28
2023-01-05T11:22:44.701Z,100576.19
2023-01-05T11:25:22.315Z,100542.50
2023-01-05T11:28:07.957Z,100576.97
2023-01-05T11:30:35.411Z,100573.47
2023-01-05T11:33:03.198Z,100573.38
2023-01-05T11:35:32.196Z,100559.88
2023-01-05T11:38:00.245Z,100586.59
2023-01-05T11:40:30.374Z,100582.03
2023-01-05T11:42:57.602Z,100576.81
2023-01-05T11:45:25.687Z,100573.22
2023-01-05T11:47:53.572Z,100574.84
2023-01-05T11:50:24.695Z,100581.03
2023-01-05T11:52:53.793Z,100545.69
2023-01-05T11:55:41.144Z,100586.03
2023-01-05T11:58:17.560Z,100563.69
2023-01-05T12:00:54.866Z,100580.63
2023-01-05T12:03:29.275Z,100596.56
2023-01-05T12:05:57.617Z,100593.91
2023-01-05T12:08:28.047Z,100572.59
2023-01-05T12:11:03.517Z,100588.44
2023-01-05T12:13:55.207Z,100597.09
2023-01-05T12:16:28.892Z,100582.56
2023-01-05T12:19:17.919Z,100598.66
2023-01-05T12:21:46.793Z,100596.94
2023-01-05T12:24:52.805Z,100593.34
2023-01-05T12:27:28.152Z,100590.69
2023-01-05T12:36:19.368Z,100596.06
2023-01-05T12:38:49.474Z,100595.69
2023-01-05T12:41:34.713Z,100605.06
2023-01-05T12:44:35.615Z,100607.66
2023-01-05T12:47:10.996Z,100534.88
2023-01-05T12:49:40.688Z,100609.47
2023-01-05T12:52:10.444Z,100612.13
2023-01-05T12:54:41.413Z,100522.06
2023-01-05T12:57:10.186Z,100582.91
2023-01-05T12:59:40.680Z,100617.50
2023-01-05T13:02:20.974Z,100622.81
2023-01-05T13:04:52.859Z,100618.44
2023-01-05T13:07:26.256Z,100627.25
2023-01-05T13:10:02.329Z,100621.13
2023-01-05T13:12:30.976Z,100623.94
2023-01-05T13:15:06.238Z,100620.25
2023-01-05T13:17:35.080Z,100612.81
2023-01-05T13:20:04.830Z,100596.47
2023-01-05T13:22:34.269Z,100628.19
2023-01-05T13:25:04.949Z,100634.34
2023-01-05T13:27:32.828Z,100637.00
2023-01-05T13:30:01.811Z,100637.00
2023-01-05T13:32:42.101Z,100640.53
2023-01-05T13:35:30.640Z,100649.44
2023-01-05T13:38:33.942Z,100650.31
2023-01-05T13:41:08.431Z,100632.53
2023-01-05T13:44:02.927Z,100661.91
2023-01-05T13:46:40.906Z,100666.25
2023-01-05T13:49:17.216Z,100637.84
2023-01-05T13:51:54.990Z,100665.38
2023-01-05T13:54:54.481Z,100654.56
2023-01-05T13:57:28.662Z,100649.56
2023-01-05T14:00:06.463Z,100679.69
2023-01-05T14:02:38.761Z,100696.47
2023-01-05T14:05:07.959Z,100692.97
2023-01-05T14:07:35.627Z,100698.25
2023-01-05T14:10:03.959Z,100704.44
2023-01-05T14:12:47.599Z,100700.00
2023-01-05T14:15:37.426Z,100707.91
2023-01-05T14:18:06.403Z,100707.09
2023-01-05T14:20:46.320Z,100715.06
2023-01-05T14:23:51.216Z,100713.28
2023-01-05T14:26:18.782Z,100717.78
2023-01-05T14:28:49.287Z,100702.50
2023-01-05T14:31:45.286Z,100716.09
2023-01-05T14:34:18.213Z,100680.84
2023-01-05T14:36:46.834Z,100723.25
2023-01-05T14:39:26.874Z,100721.41
2023-01-05T14:41:59.091Z,100711.41
2023-01-05T14:44:28.655Z,100700.53
2023-01-05T14:46:56.814Z,100680.63
2023-01-05T14:49:27.954Z,100745.28
2023-01-05T14:51:56.328Z,100718.00
2023-01-05T14:55:00.646Z,100739.91
2023-01-05T14:57:49.315Z,100740.81
2023-01-05T15:00:17.549Z,100685.06
2023-01-05T15:02:49.560Z,100715.28
2023-01-05T15:05:18.274Z,100744.66
2023-01-05T15:07:48.639Z,100750.75
2023-01-05T15:10:43.629Z,100721.44
2023-01-05T15:13:22.956Z,100745.81
2023-01-05T15:15:50.918Z,100748.09
2023-01-05T15:21:35.911Z,100760.28
2023-01-05T15:24:19.401Z,100756.66
2023-01-05T15:27:05.724Z,100695.66
2023-01-05T15:29:46.398Z,100762.06
2023-01-05T15:32:17.716Z,100759.56
2023-01-05T15:34:45.697Z,100764.03
2023-01-05T15:37:14.656Z,100764.84
2023-01-05T15:39:50.322Z,100758.63
2023-01-05T15:42:19.850Z,100708.72
2023-01-05T15:44:48.169Z,100739.88
2023-01-05T15:47:15.823Z,100753.47
2023-01-05T15:49:43.548Z,100764.78
2023-01-05T15:52:19.435Z,100728.06
2023-01-05T15:54:58.413Z,100763.94
2023-01-05T15:57:25.870Z,100762.13
2023-01-05T15:59:53.240Z,100763.06
2023-01-05T16:02:23.185Z,100765.72
2023-01-05T16:05:08.969Z,100767.44
2023-01-05T16:07:36.358Z,100777.28
2023-01-05T16:10:05.709Z,100769.34
2023-01-05T16:12:33.081Z,100765.88
2023-01-05T16:15:04.284Z,100765.16
2023-01-05T16:17:32.794Z,100773.91
2023-01-05T16:20:03.400Z,100741.56
2023-01-05T16:22:32.185Z,100778.50
2023-01-05T16:25:01.427Z,100789.19
2023-01-05T16:27:30.159Z,100713.72
2023-01-05T16:29:57.570Z,100786.69
2023-01-05T16:32:32.457Z,100792.06
2023-01-05T16:35:22.213Z,100795.69
2023-01-05T16:38:05.316Z,100790.53
2023-01-05T16:40:32.743Z,100740.88
2023-01-05T16:43:01.511Z,100791.69
2023-01-05T16:45:32.687Z,100767.75
2023-01-05T16:48:00.143Z,100799.78
2023-01-05T16:51:00.721Z,100798.91
2023-01-05T16:53:28.152Z,100806.16
2023-01-05T16:55:59.578Z,100796.50
2023-01-05T16:58:36.503Z,100805.41
2023-01-05T17:01:26.790Z,100742.09
2023-01-05T17:03:54.264Z,100809.31
2023-01-05T17:06:26.753Z,100807.53
2023-01-05T17:08:54.437Z,100808.56
2023-01-05T17:11:21.851Z,100805.97
2023-01-05T17:13:52.193Z,100804.44
2023-01-05T17:16:19.942Z,100808.84
2023-01-05T17:18:47.538Z,100808.84
2023-01-05T17:21:16.895Z,100804.09
2023-01-05T17:23:46.969Z,100818.72
2023-01-05T17:26:17.301Z,100743.69
2023-01-05T17:28:44.599Z,100809.28
2023-01-05T17:33:41.622Z,100827.91
2023-01-05T17:36:09.234Z,100829.69
2023-01-05T17:38:36.639Z,100828.03
2023-01-05T17:41:04.014Z,100841.31
2023-01-05T17:43:31.396Z,100834.34
2023-01-05T17:45:58.886Z,100786.16
2023-01-05T17:48:27.613Z,100834.47
2023-01-05T17:50:55.021Z,100830.03
2023-01-05T17:53:22.408Z,100830.19
2023-01-05T17:55:49.770Z,100828.47
2023-01-05T17:58:17.164Z,100824.06
2023-01-05T18:03:17.026Z,100819.78
2023-01-05T18:05:45.616Z,100822.56
2023-01-05T18:08:13.116Z,100803.63
2023-01-05T18:13:13.074Z,100817.41
2023-01-05T18:15:42.052Z,100816.59
2023-01-05T18:18:09.465Z,100813.97
2023-01-05T18:20:36.990Z,100808.03
2023-01-05T18:25:34.018Z,100766.91
2023-01-05T18:28:01.480Z,100813.31
2023-01-05T18:30:29.073Z,100752.19
2023-01-05T18:32:57.230Z,100827.56
2023-01-05T18:35:24.653Z,100816.19
2023-01-05T18:37:52.055Z,100811.16
2023-01-05T18:40:20.858Z,100822.41
2023-01-05T18:42:48.263Z,100818.97
2023-01-05T18:45:20.040Z,100816.47
2023-01-05T18:47:56.564Z,100773.72
2023-01-05T18:50:23.941Z,100816.59
2023-01-05T18:52:51.336Z,100823.69
2023-01-05T18:55:18.858Z,100822.88
2023-01-05T18:57:47.567Z,100826.47
2023-01-05T19:00:15.973Z,100826.50
2023-01-05T19:02:43.368Z,100810.94
2023-01-05T19:05:10.830Z,100822.22
2023-01-05T19:07:39.642Z,100821.41
2023-01-05T19:10:07.971Z,100743.16
2023-01-05T19:12:35.365Z,100818.00
2023-01-05T19:15:04.168Z,100817.19
2023-01-05T19:17:33.477Z,100819.88
2023-01-05T19:20:00.858Z,100819.03
2023-01-05T19:22:28.272Z,100817.31
2023-01-05T19:24:56.276Z,100813.78
2023-01-05T19:27:23.646Z,100811.13
2023-01-05T19:29:51.024Z,100813.84
2023-01-05T19:32:19.733Z,100812.16
2023-01-05T19:34:47.099Z,100809.56
2023-01-05T19:37:14.482Z,100804.34
2023-01-05T19:39:42.003Z,100806.13
2023-01-05T19:42:09.391Z,100796.38
2023-01-05T19:44:36.767Z,100790.22
2023-01-05T19:47:04.151Z,100797.34
2023-01-05T19:49:32.887Z,100796.53
2023-01-05T19:52:00.277Z,100803.53
2023-01-05T19:54:28.543Z,100800.06
2023-01-05T19:56:56.314Z,100806.25
2023-01-05T19:59:26.331Z,100774.31
2023-01-05T20:01:56.067Z,100800.06
2023-01-05T20:04:23.553Z,100801.09
2023-01-05T20:06:52.240Z,100793.19
2023-01-05T20:09:19.966Z,100714.94
2023-01-05T20:11:48.789Z,100757.13
2023-01-05T20:14:17.168Z,100699.47
2023-01-05T20:16:45.951Z,100785.38
2023-01-05T20:19:13.393Z,100786.31
2023-01-05T20:21:40.769Z,100782.75
2023-01-05T20:24:13.440Z,100779.28
2023-01-05T20:26:41.841Z,100778.50
2023-01-05T20:29:09.278Z,100782.94
2023-01-05T20:31:37.632Z,100758.31
2023-01-05T20:34:06.653Z,100780.34
2023-01-05T20:36:34.101Z,100750.44
2023-01-05T20:39:02.841Z,100759.72
2023-01-05T20:41:32.506Z,100790.16
2023-01-05T20:43:59.915Z,100795.50
2023-01-05T20:46:29.618Z,100789.38
2023-01-05T20:48:57.175Z,100788.50
2023-01-05T20:51:24.658Z,100780.63
2023-01-05T20:53:52.395Z,100777.97
2023-01-05T20:56:21.822Z,100779.81
2023-01-05T20:58:51.396Z,100664.41
2023-01-05T21:01:18.896Z,100773.69
2023-01-05T21:03:46.346Z,100769.34
2023-01-05T21:06:14.739Z,100772.88
2023-01-05T21:08:42.179Z,100772.94
2023-01-05T21:11:15.851Z,100776.53
2023-01-05T21:13:44.082Z,100773.81
2023-01-05T21:16:15.774Z,100699.84
2023-01-05T21:18:43.333Z,100776.53
2023-01-05T21:21:10.792Z,100769.50
2023-01-05T21:23:38.211Z,100772.19
2023-01-05T21:26:10.268Z,100776.66
2023-01-05T21:28:41.283Z,100708.66
2023-01-05T21:31:10.098Z,100767.91
2023-01-05T21:33:40.183Z,100773.22
2023-01-05T21:36:07.761Z,100774.22
2023-01-05T21:39:01.079Z,100776.00
2023-01-05T21:41:36.628Z,100766.34
2023-01-05T21:44:04.757Z,100771.63
2023-01-05T21:46:32.132Z,100769.88
2023-01-05T21:49:00.822Z,100766.41
2023-01-05T21:51:45.797Z,100768.19
2023-01-05T21:54:31.146Z,100761.16
2023-01-05T21:56:59.132Z,100763.00
2023-01-05T21:59:26.613Z,100693.19
2023-01-05T22:01:54.413Z,100761.16
2023-01-05T22:04:23.109Z,100755.06
2023-01-05T22:06:50.986Z,100679.16
2023-01-05T22:09:18.412Z,100729.00
2023-01-05T22:11:45.790Z,100736.59
2023-01-05T22:14:13.193Z,100738.38
2023-01-05T22:16:40.616Z,100739.31
2023-01-05T22:19:08.064Z,100737.59
2023-01-05T22:21:36.808Z,100733.22
2023-01-05T22:24:04.340Z,100738.50
2023-01-05T22:26:31.717Z,100743.81
2023-01-05T22:28:59.080Z,100739.44
2023-01-05T22:31:27.318Z,100739.50
2023-01-05T22:33:55.510Z,100650.91
2023-01-05T22:36:23.385Z,100743.03
2023-01-05T22:38:52.681Z,100738.66
2023-01-05T22:41:22.034Z,100736.94
2023-01-05T22:43:49.622Z,100738.78
2023-01-05T22:46:19.896Z,100733.47
2023-01-05T22:48:48.039Z,100730.84
2023-01-05T22:51:17.777Z,100735.47
2023-01-05T22:53:45.428Z,100657.88
2023-01-05T22:56:14.926Z,100736.25
2023-01-05T22:58:42.920Z,100730.25
2023-01-05T23:01:11.133Z,100730.97
2023-01-05T23:03:38.764Z,100722.25
2023-01-05T23:06:06.453Z,100719.59
2023-01-05T23:08:39.727Z,100719.66
2023-01-05T23:11:08.202Z,100715.28
2023-01-05T23:13:36.896Z,100710.00
2023-01-05T23:16:05.209Z,100645.59
2023-01-05T23:18:32.867Z,100682.59
2023-01-05T23:21:01.126Z,100595.72
2023-01-05T23:23:30.324Z,100703.13
2023-01-05T23:25:57.712Z,100697.81
2023-01-05T23:28:25.908Z,100609.94
2023-01-05T23:30:55.346Z,100689.00
2023-01-05T23:33:23.540Z,100687.25
2023-01-05T23:35:51.242Z,100678.13
2023-01-05T23:38:18.642Z,100689.94
2023-01-05T23:40:46.973Z,100687.38
2023-01-05T23:43:15.695Z,100617.69
2023-01-05T23:45:43.317Z,100681.28
2023-01-05T23:48:12.419Z,100683.00
2023-01-05T23:50:41.909Z,100678.63
2023-01-05T23:53:09.271Z,100669.03
2023-01-05T23:55:36.661Z,100670.81
2023-01-05T23:58:04.026Z,100662.88
